Rittushinmaru — JD4016 — position and weather

sailwx.info

Track history (hours):
 
Tides and Currents Weather Stations Pressure Air Temp Water Temp Dewpoint Dewpoint Depression Visibility Wind Speed Wind Dir Waves Ship Positions

Rittushinmaru

Last reported at 2017-Sep-13 12:58 UTC. Time now 2017-Sep-21 12:30 UTC.
Position N 34°57' E 139°17'.

Length 72 m; draft 3.5 m.

Type: Cargo ship. MMSI: 431007878.

Date/timePositionNaut miles runAvg speedWind from/ knotsBaromVisibWave heightAir tempDewpointWater temp
2017-Sep-13 12:58N 34°57' E 139°17'6 9.7
2017-Sep-13 12:24N 34°60' E 139°23'4 9.7
2017-Sep-13 11:58N 35°02' E 139°28'510.0
2017-Sep-13 11:30N 35°04' E 139°33'510.7
2017-Sep-13 11:00N 35°06' E 139°39'510.2
2017-Sep-13 10:30N 35°09' E 139°44'5 9.9
2017-Sep-13 10:00N 35°14' E 139°46'5 9.3
2017-Sep-13 09:31N 35°18' E 139°44'5 9.9
2017-Sep-13 09:01N 35°23' E 139°42'510.4
2017-Sep-13 08:30N 35°28' E 139°43'1 1.2
2017-Sep-13 08:01N 35°28' E 139°42'0 0.0
2017-Sep-13 07:31N 35°28' E 139°42'0 0.0
2017-Sep-13 07:00N 35°28' E 139°42'0 0.0
2017-Sep-13 06:31N 35°28' E 139°42'0 0.0
2017-Sep-13 06:01N 35°28' E 139°42'0 0.0
2017-Sep-13 05:30N 35°28' E 139°42'0 0.0
2017-Sep-13 05:01N 35°28' E 139°42'0 0.0
2017-Sep-13 04:31N 35°28' E 139°42'0 0.0
2017-Sep-13 04:01N 35°28' E 139°42'0 0.0
2017-Sep-13 03:31N 35°28' E 139°42'0 0.0
2017-Sep-13 03:01N 35°28' E 139°42'0 0.0
2017-Sep-13 02:31N 35°28' E 139°42'0 0.0
2017-Sep-13 02:01N 35°28' E 139°42'0 0.0
2017-Sep-13 01:31N 35°28' E 139°42'0 0.0
2017-Sep-13 01:01N 35°28' E 139°42'0 0.0
2017-Sep-13 00:31N 35°28' E 139°42'0 0.0
2017-Sep-13 00:01N 35°28' E 139°42'0 0.0
2017-Sep-12 23:30N 35°28' E 139°42'0 0.0
2017-Sep-12 23:01N 35°28' E 139°42'0 0.0
2017-Sep-12 22:30N 35°28' E 139°42'0 0.0
2017-Sep-12 22:00N 35°28' E 139°42'0 0.0
2017-Sep-12 21:30N 35°28' E 139°42'0 0.0
2017-Sep-12 21:01N 35°28' E 139°42'0 0.0
2017-Sep-12 20:31N 35°28' E 139°42'0 0.0
2017-Sep-12 20:01N 35°28' E 139°42'0 0.0
2017-Sep-12 19:31N 35°28' E 139°42'0 0.0
2017-Sep-12 19:01N 35°28' E 139°42'0 0.0
2017-Sep-12 18:30N 35°28' E 139°42'0 0.0
2017-Sep-12 18:01N 35°28' E 139°42'0 0.0
2017-Sep-12 17:31N 35°28' E 139°42'0 0.0
2017-Sep-12 17:01N 35°28' E 139°42'0 0.0
2017-Sep-12 16:31N 35°28' E 139°42'0 0.0
2017-Sep-12 16:01N 35°28' E 139°42'0 0.0
2017-Sep-12 15:31N 35°28' E 139°42'0 0.0
2017-Sep-12 15:00N 35°28' E 139°42'0 0.0
2017-Sep-12 14:30N 35°28' E 139°42'0 0.0
2017-Sep-12 14:01N 35°28' E 139°42'0 0.0
2017-Sep-12 13:31N 35°28' E 139°42'0 0.0
2017-Sep-12 13:01N 35°28' E 139°42'0 0.0
2017-Sep-12 12:31N 35°28' E 139°42'0 0.0
2017-Sep-12 12:00N 35°28' E 139°42'0 0.0
2017-Sep-12 11:31N 35°28' E 139°42'0 0.0
2017-Sep-12 11:01N 35°28' E 139°42'0 0.0
2017-Sep-12 10:31N 35°28' E 139°42'0 0.0
2017-Sep-12 10:00N 35°28' E 139°42'0 0.0
2017-Sep-12 09:31N 35°28' E 139°42'0 0.0
2017-Sep-12 09:01N 35°28' E 139°42'0 0.0
2017-Sep-12 08:30N 35°28' E 139°42'0 0.0
2017-Sep-12 08:00N 35°28' E 139°42'0 0.0
2017-Sep-12 07:31N 35°28' E 139°42'0 0.0
2017-Sep-12 07:00N 35°28' E 139°42'0 0.0
2017-Sep-12 06:30N 35°28' E 139°42'0 0.0
2017-Sep-12 06:01N 35°28' E 139°42'0 0.0
2017-Sep-12 05:30N 35°28' E 139°42'0 0.0
2017-Sep-12 05:00N 35°28' E 139°42'0 0.0
2017-Sep-12 04:30N 35°28' E 139°42'0 0.0
2017-Sep-12 04:00N 35°28' E 139°42'0 0.0
2017-Sep-12 03:31N 35°28' E 139°42'0 0.0
2017-Sep-12 03:00N 35°28' E 139°42'0 0.0
2017-Sep-12 02:30N 35°28' E 139°42'0 0.0
2017-Sep-12 02:01N 35°28' E 139°42'0 0.0
2017-Sep-12 01:31N 35°28' E 139°42'0 0.0
2017-Sep-12 01:00N 35°28' E 139°42'0 0.0
2017-Sep-12 00:31N 35°28' E 139°42'0 0.0
2017-Sep-12 00:00N 35°28' E 139°42'0 0.0
2017-Sep-11 23:31N 35°28' E 139°42'0 0.0
2017-Sep-11 23:01N 35°28' E 139°42'0 0.0
2017-Sep-11 22:31N 35°28' E 139°42'0 0.0
2017-Sep-11 22:00N 35°28' E 139°42'0 0.0
2017-Sep-11 21:31N 35°28' E 139°42'0 0.0
2017-Sep-11 21:01N 35°28' E 139°42'0 0.0
2017-Sep-11 20:30N 35°28' E 139°42'0 0.0
2017-Sep-11 20:01N 35°28' E 139°42'0 0.0
2017-Sep-11 19:31N 35°28' E 139°42'0 0.0
2017-Sep-11 19:01N 35°28' E 139°42'0 0.0
2017-Sep-11 18:31N 35°28' E 139°42'0 0.0
2017-Sep-11 18:01N 35°28' E 139°42'0 0.0
2017-Sep-11 17:31N 35°28' E 139°42'0 0.0
2017-Sep-11 17:01N 35°28' E 139°42'0 0.0
2017-Sep-11 16:31N 35°28' E 139°42'0 0.0
2017-Sep-11 16:01N 35°28' E 139°42'0 0.7
2017-Sep-11 15:30N 35°28' E 139°42'1 2.3
2017-Sep-11 15:01N 35°27' E 139°43'0 0.0
2017-Sep-11 14:30N 35°27' E 139°43'0 0.1
2017-Sep-11 14:00N 35°27' E 139°43'0 0.0
2017-Sep-11 13:31N 35°27' E 139°43'0 0.0
2017-Sep-11 13:01N 35°27' E 139°43'0 0.1
2017-Sep-11 12:30N 35°27' E 139°43'0 0.0
2017-Sep-11 12:00N 35°27' E 139°43'0 0.1
2017-Sep-11 11:31N 35°27' E 139°43'0 0.1
2017-Sep-11 11:00N 35°27' E 139°43'0 0.0
2017-Sep-11 10:31N 35°27' E 139°43'0 0.0
2017-Sep-11 10:01N 35°27' E 139°43'0 0.0
2017-Sep-11 09:31N 35°27' E 139°43'0 0.0
2017-Sep-11 09:01N 35°27' E 139°43'0 0.0
2017-Sep-11 08:30N 35°27' E 139°43'0 0.0
2017-Sep-11 08:00N 35°27' E 139°43'0 0.0
2017-Sep-11 07:30N 35°27' E 139°43'0 0.0
2017-Sep-11 07:01N 35°27' E 139°43'0 0.0
2017-Sep-11 06:30N 35°27' E 139°43'0 0.0
2017-Sep-11 06:01N 35°27' E 139°43'0 0.0
2017-Sep-11 05:31N 35°27' E 139°43'0 0.0
2017-Sep-11 05:01N 35°27' E 139°43'0 0.0
2017-Sep-11 04:31N 35°27' E 139°43'0 0.0
2017-Sep-11 04:01N 35°27' E 139°43'0 0.0
2017-Sep-11 03:31N 35°27' E 139°43'0 0.0
2017-Sep-11 03:01N 35°27' E 139°43'0 0.0
2017-Sep-11 02:30N 35°27' E 139°43'0 0.0
2017-Sep-11 02:00N 35°27' E 139°43'0 0.1
2017-Sep-11 01:31N 35°27' E 139°43'0 0.0
2017-Sep-11 01:01N 35°27' E 139°43'0 0.0
2017-Sep-11 00:31N 35°27' E 139°43'0 0.0
2017-Sep-11 00:01N 35°27' E 139°43'0 0.0
2017-Sep-10 23:31N 35°27' E 139°43'0 0.0
2017-Sep-10 23:01N 35°27' E 139°43'0 0.1
2017-Sep-10 22:31N 35°27' E 139°43'0 0.0
2017-Sep-10 22:00N 35°27' E 139°43'0 0.0
2017-Sep-10 21:30N 35°27' E 139°43'0 0.0
2017-Sep-10 21:01N 35°27' E 139°43'0 0.0
2017-Sep-10 20:31N 35°27' E 139°43'0 0.0
2017-Sep-10 20:01N 35°27' E 139°43'0 0.0
2017-Sep-10 19:31N 35°27' E 139°43'0 0.0
2017-Sep-10 19:00N 35°27' E 139°43'0 0.1
2017-Sep-10 18:30N 35°27' E 139°43'0 0.1
2017-Sep-10 18:01N 35°27' E 139°43'0 0.0
2017-Sep-10 17:31N 35°27' E 139°43'0 0.0
2017-Sep-10 17:01N 35°27' E 139°43'0 0.0
2017-Sep-10 16:30N 35°27' E 139°43'0 0.1
2017-Sep-10 16:01N 35°27' E 139°43'0 0.0
2017-Sep-10 15:31N 35°27' E 139°43'0 0.0
2017-Sep-10 15:00N 35°27' E 139°43'0 0.0
2017-Sep-10 14:00N 35°27' E 139°43'0 0.0
2017-Sep-10 13:30N 35°27' E 139°43'0 0.0
2017-Sep-10 13:00N 35°27' E 139°43'0 0.1
2017-Sep-10 12:31N 35°27' E 139°43'0 0.1
2017-Sep-10 12:01N 35°27' E 139°43'0 0.0
2017-Sep-10 11:30N 35°27' E 139°43'0 0.0
2017-Sep-10 11:01N 35°27' E 139°43'0 0.0
2017-Sep-10 10:31N 35°27' E 139°43'0 0.0
2017-Sep-10 10:00N 35°27' E 139°43'0 0.0
2017-Sep-10 09:31N 35°27' E 139°43'0 0.0
2017-Sep-10 09:00N 35°27' E 139°43'0 0.0
2017-Sep-10 08:31N 35°27' E 139°43'0 0.0
2017-Sep-10 08:01N 35°27' E 139°43'0 0.0
2017-Sep-10 07:30N 35°27' E 139°43'0 0.0
2017-Sep-10 07:00N 35°27' E 139°43'4 8.0
2017-Sep-10 06:31N 35°23' E 139°43'611.6
2017-Sep-10 06:00N 35°17' E 139°45'511.1
2017-Sep-10 05:30N 35°12' E 139°47'611.4
2017-Sep-10 05:00N 35°06' E 139°45'611.6
2017-Sep-10 04:30N 35°01' E 139°44'  
Track history (hours):
 
Tides and Currents Weather Stations Pressure Air Temp Water Temp Dewpoint Dewpoint Depression Visibility Wind Speed Wind Dir Waves Ship Positions

Rittushinmaru

Last reported at 2017-Sep-13 12:58 UTC. Time now 2017-Sep-21 12:30 UTC.
Position N 34°57' E 139°17'.

Length 72 m; draft 3.5 m.

Type: Cargo ship. MMSI: 431007878.

Date/timePositionNaut miles runAvg speedWind from/ knotsBaromVisibWave heightAir tempDewpointWater temp
2017-Sep-13 12:58N 34°57' E 139°17'6 9.7
2017-Sep-13 12:24N 34°60' E 139°23'4 9.7
2017-Sep-13 11:58N 35°02' E 139°28'510.0
2017-Sep-13 11:30N 35°04' E 139°33'510.7
2017-Sep-13 11:00N 35°06' E 139°39'510.2
2017-Sep-13 10:30N 35°09' E 139°44'5 9.9
2017-Sep-13 10:00N 35°14' E 139°46'5 9.3
2017-Sep-13 09:31N 35°18' E 139°44'5 9.9
2017-Sep-13 09:01N 35°23' E 139°42'510.4
2017-Sep-13 08:30N 35°28' E 139°43'1 1.2
2017-Sep-13 08:01N 35°28' E 139°42'0 0.0
2017-Sep-13 07:31N 35°28' E 139°42'0 0.0
2017-Sep-13 07:00N 35°28' E 139°42'0 0.0
2017-Sep-13 06:31N 35°28' E 139°42'0 0.0
2017-Sep-13 06:01N 35°28' E 139°42'0 0.0
2017-Sep-13 05:30N 35°28' E 139°42'0 0.0
2017-Sep-13 05:01N 35°28' E 139°42'0 0.0
2017-Sep-13 04:31N 35°28' E 139°42'0 0.0
2017-Sep-13 04:01N 35°28' E 139°42'0 0.0
2017-Sep-13 03:31N 35°28' E 139°42'0 0.0
2017-Sep-13 03:01N 35°28' E 139°42'0 0.0
2017-Sep-13 02:31N 35°28' E 139°42'0 0.0
2017-Sep-13 02:01N 35°28' E 139°42'0 0.0
2017-Sep-13 01:31N 35°28' E 139°42'0 0.0
2017-Sep-13 01:01N 35°28' E 139°42'0 0.0
2017-Sep-13 00:31N 35°28' E 139°42'0 0.0
2017-Sep-13 00:01N 35°28' E 139°42'0 0.0
2017-Sep-12 23:30N 35°28' E 139°42'0 0.0
2017-Sep-12 23:01N 35°28' E 139°42'0 0.0
2017-Sep-12 22:30N 35°28' E 139°42'0 0.0
2017-Sep-12 22:00N 35°28' E 139°42'0 0.0
2017-Sep-12 21:30N 35°28' E 139°42'0 0.0
2017-Sep-12 21:01N 35°28' E 139°42'0 0.0
2017-Sep-12 20:31N 35°28' E 139°42'0 0.0
2017-Sep-12 20:01N 35°28' E 139°42'0 0.0
2017-Sep-12 19:31N 35°28' E 139°42'0 0.0
2017-Sep-12 19:01N 35°28' E 139°42'0 0.0
2017-Sep-12 18:30N 35°28' E 139°42'0 0.0
2017-Sep-12 18:01N 35°28' E 139°42'0 0.0
2017-Sep-12 17:31N 35°28' E 139°42'0 0.0
2017-Sep-12 17:01N 35°28' E 139°42'0 0.0
2017-Sep-12 16:31N 35°28' E 139°42'0 0.0
2017-Sep-12 16:01N 35°28' E 139°42'0 0.0
2017-Sep-12 15:31N 35°28' E 139°42'0 0.0
2017-Sep-12 15:00N 35°28' E 139°42'0 0.0
2017-Sep-12 14:30N 35°28' E 139°42'0 0.0
2017-Sep-12 14:01N 35°28' E 139°42'0 0.0
2017-Sep-12 13:31N 35°28' E 139°42'0 0.0
2017-Sep-12 13:01N 35°28' E 139°42'0 0.0
2017-Sep-12 12:31N 35°28' E 139°42'0 0.0
2017-Sep-12 12:00N 35°28' E 139°42'0 0.0
2017-Sep-12 11:31N 35°28' E 139°42'0 0.0
2017-Sep-12 11:01N 35°28' E 139°42'0 0.0
2017-Sep-12 10:31N 35°28' E 139°42'0 0.0
2017-Sep-12 10:00N 35°28' E 139°42'0 0.0
2017-Sep-12 09:31N 35°28' E 139°42'0 0.0
2017-Sep-12 09:01N 35°28' E 139°42'0 0.0
2017-Sep-12 08:30N 35°28' E 139°42'0 0.0
2017-Sep-12 08:00N 35°28' E 139°42'0 0.0
2017-Sep-12 07:31N 35°28' E 139°42'0 0.0
2017-Sep-12 07:00N 35°28' E 139°42'0 0.0
2017-Sep-12 06:30N 35°28' E 139°42'0 0.0
2017-Sep-12 06:01N 35°28' E 139°42'0 0.0
2017-Sep-12 05:30N 35°28' E 139°42'0 0.0
2017-Sep-12 05:00N 35°28' E 139°42'0 0.0
2017-Sep-12 04:30N 35°28' E 139°42'0 0.0
2017-Sep-12 04:00N 35°28' E 139°42'0 0.0
2017-Sep-12 03:31N 35°28' E 139°42'0 0.0
2017-Sep-12 03:00N 35°28' E 139°42'0 0.0
2017-Sep-12 02:30N 35°28' E 139°42'0 0.0
2017-Sep-12 02:01N 35°28' E 139°42'0 0.0
2017-Sep-12 01:31N 35°28' E 139°42'0 0.0
2017-Sep-12 01:00N 35°28' E 139°42'0 0.0
2017-Sep-12 00:31N 35°28' E 139°42'0 0.0
2017-Sep-12 00:00N 35°28' E 139°42'0 0.0
2017-Sep-11 23:31N 35°28' E 139°42'0 0.0
2017-Sep-11 23:01N 35°28' E 139°42'0 0.0
2017-Sep-11 22:31N 35°28' E 139°42'0 0.0
2017-Sep-11 22:00N 35°28' E 139°42'0 0.0
2017-Sep-11 21:31N 35°28' E 139°42'0 0.0
2017-Sep-11 21:01N 35°28' E 139°42'0 0.0
2017-Sep-11 20:30N 35°28' E 139°42'0 0.0
2017-Sep-11 20:01N 35°28' E 139°42'0 0.0
2017-Sep-11 19:31N 35°28' E 139°42'0 0.0
2017-Sep-11 19:01N 35°28' E 139°42'0 0.0
2017-Sep-11 18:31N 35°28' E 139°42'0 0.0
2017-Sep-11 18:01N 35°28' E 139°42'0 0.0
2017-Sep-11 17:31N 35°28' E 139°42'0 0.0
2017-Sep-11 17:01N 35°28' E 139°42'0 0.0
2017-Sep-11 16:31N 35°28' E 139°42'0 0.0
2017-Sep-11 16:01N 35°28' E 139°42'0 0.7
2017-Sep-11 15:30N 35°28' E 139°42'1 2.3
2017-Sep-11 15:01N 35°27' E 139°43'0 0.0
2017-Sep-11 14:30N 35°27' E 139°43'0 0.1
2017-Sep-11 14:00N 35°27' E 139°43'0 0.0
2017-Sep-11 13:31N 35°27' E 139°43'0 0.0
2017-Sep-11 13:01N 35°27' E 139°43'0 0.1
2017-Sep-11 12:30N 35°27' E 139°43'0 0.0
2017-Sep-11 12:00N 35°27' E 139°43'0 0.1
2017-Sep-11 11:31N 35°27' E 139°43'0 0.1
2017-Sep-11 11:00N 35°27' E 139°43'0 0.0
2017-Sep-11 10:31N 35°27' E 139°43'0 0.0
2017-Sep-11 10:01N 35°27' E 139°43'0 0.0
2017-Sep-11 09:31N 35°27' E 139°43'0 0.0
2017-Sep-11 09:01N 35°27' E 139°43'0 0.0
2017-Sep-11 08:30N 35°27' E 139°43'0 0.0
2017-Sep-11 08:00N 35°27' E 139°43'0 0.0
2017-Sep-11 07:30N 35°27' E 139°43'0 0.0
2017-Sep-11 07:01N 35°27' E 139°43'0 0.0
2017-Sep-11 06:30N 35°27' E 139°43'0 0.0
2017-Sep-11 06:01N 35°27' E 139°43'0 0.0
2017-Sep-11 05:31N 35°27' E 139°43'0 0.0
2017-Sep-11 05:01N 35°27' E 139°43'0 0.0
2017-Sep-11 04:31N 35°27' E 139°43'0 0.0
2017-Sep-11 04:01N 35°27' E 139°43'0 0.0
2017-Sep-11 03:31N 35°27' E 139°43'0 0.0
2017-Sep-11 03:01N 35°27' E 139°43'0 0.0
2017-Sep-11 02:30N 35°27' E 139°43'0 0.0
2017-Sep-11 02:00N 35°27' E 139°43'0 0.1
2017-Sep-11 01:31N 35°27' E 139°43'0 0.0
2017-Sep-11 01:01N 35°27' E 139°43'0 0.0
2017-Sep-11 00:31N 35°27' E 139°43'0 0.0
2017-Sep-11 00:01N 35°27' E 139°43'0 0.0
2017-Sep-10 23:31N 35°27' E 139°43'0 0.0
2017-Sep-10 23:01N 35°27' E 139°43'0 0.1
2017-Sep-10 22:31N 35°27' E 139°43'0 0.0
2017-Sep-10 22:00N 35°27' E 139°43'0 0.0
2017-Sep-10 21:30N 35°27' E 139°43'0 0.0
2017-Sep-10 21:01N 35°27' E 139°43'0 0.0
2017-Sep-10 20:31N 35°27' E 139°43'0 0.0
2017-Sep-10 20:01N 35°27' E 139°43'0 0.0
2017-Sep-10 19:31N 35°27' E 139°43'0 0.0
2017-Sep-10 19:00N 35°27' E 139°43'0 0.1
2017-Sep-10 18:30N 35°27' E 139°43'0 0.1
2017-Sep-10 18:01N 35°27' E 139°43'0 0.0
2017-Sep-10 17:31N 35°27' E 139°43'0 0.0
2017-Sep-10 17:01N 35°27' E 139°43'0 0.0
2017-Sep-10 16:30N 35°27' E 139°43'0 0.1
2017-Sep-10 16:01N 35°27' E 139°43'0 0.0
2017-Sep-10 15:31N 35°27' E 139°43'0 0.0
2017-Sep-10 15:00N 35°27' E 139°43'0 0.0
2017-Sep-10 14:00N 35°27' E 139°43'0 0.0
2017-Sep-10 13:30N 35°27' E 139°43'0 0.0
2017-Sep-10 13:00N 35°27' E 139°43'0 0.1
2017-Sep-10 12:31N 35°27' E 139°43'0 0.1
2017-Sep-10 12:01N 35°27' E 139°43'0 0.0
2017-Sep-10 11:30N 35°27' E 139°43'0 0.0
2017-Sep-10 11:01N 35°27' E 139°43'0 0.0
2017-Sep-10 10:31N 35°27' E 139°43'0 0.0
2017-Sep-10 10:00N 35°27' E 139°43'0 0.0
2017-Sep-10 09:31N 35°27' E 139°43'0 0.0
2017-Sep-10 09:00N 35°27' E 139°43'0 0.0
2017-Sep-10 08:31N 35°27' E 139°43'0 0.0
2017-Sep-10 08:01N 35°27' E 139°43'0 0.0
2017-Sep-10 07:30N 35°27' E 139°43'0 0.0
2017-Sep-10 07:00N 35°27' E 139°43'4 8.0
2017-Sep-10 06:31N 35°23' E 139°43'611.6
2017-Sep-10 06:00N 35°17' E 139°45'511.1
2017-Sep-10 05:30N 35°12' E 139°47'611.4
2017-Sep-10 05:00N 35°06' E 139°45'611.6
2017-Sep-10 04:30N 35°01' E 139°44'  

Dump ship's entire track history